CheckWX is a tool to help pilots better visualize weather data.  It is not intended as a substitute for an official pre-flight weather briefing.

19:56:26 UTC

UIII METAR
Irkutsk Airport
Irkutsk, Russian Federation
Current

26 mins ago

UIII 271930Z 14004MPS CAVOK M15/M18 Q1024 R12/CLRD60 NOSIG RMK QFE725/0967
Observed
Jan-27 @ 19:30 UTC
Wind
  • 140° at 8 KTS
Visibility
10,000+ meters
Flight Rules
VFR
Cloud Levels
  • Clear skies
Temperature
-15°C / 5°F
Dewpoint
-18°C / -0°F
Humidity
78%
Altimeter
30.24" Hg
Pressure
1023.92 hPa
Previous

56 mins ago

UIII 271900Z 13004MPS CAVOK M15/M18 Q1024 R12/CLRD60 NOSIG RMK QFE725/0967
Observed
Jan-27 @ 19:00 UTC
Wind
  • 130° at 8 KTS
Visibility
10,000+ meters
Flight Rules
VFR
Cloud Levels
  • Clear skies
Temperature
-15°C / 5°F
Dewpoint
-18°C / -0°F
Humidity
78%
Altimeter
30.24" Hg
Pressure
1023.92 hPa
Previous

1 hour ago

UIII 271830Z 13004MPS CAVOK M15/M18 Q1024 R12/CLRD60 NOSIG RMK QFE725/0967
Observed
Jan-27 @ 18:30 UTC
Wind
  • 130° at 8 KTS
Visibility
10,000+ meters
Flight Rules
VFR
Cloud Levels
  • Clear skies
Temperature
-15°C / 5°F
Dewpoint
-18°C / -0°F
Humidity
78%
Altimeter
30.24" Hg
Pressure
1023.92 hPa